sensor_id;sensor_type;location;lat;lon;timestamp;temperature;humidity
59162;DHT22;44942;48.936;8.260;2023-07-13T00:00:36;25.90;48.40
59162;DHT22;44942;48.936;8.260;2023-07-13T00:05:36;25.90;48.50
59162;DHT22;44942;48.936;8.260;2023-07-13T00:10:40;25.80;48.60
59162;DHT22;44942;48.936;8.260;2023-07-13T00:15:41;25.70;48.60
59162;DHT22;44942;48.936;8.260;2023-07-13T00:20:41;25.70;48.80
59162;DHT22;44942;48.936;8.260;2023-07-13T00:25:43;25.60;48.80
59162;DHT22;44942;48.936;8.260;2023-07-13T00:30:43;25.50;48.80
59162;DHT22;44942;48.936;8.260;2023-07-13T00:35:44;25.50;48.90
59162;DHT22;44942;48.936;8.260;2023-07-13T00:40:45;25.40;48.90
59162;DHT22;44942;48.936;8.260;2023-07-13T00:50:46;25.30;49.00
59162;DHT22;44942;48.936;8.260;2023-07-13T00:55:49;25.30;48.90
59162;DHT22;44942;48.936;8.260;2023-07-13T01:00:50;25.30;48.90
59162;DHT22;44942;48.936;8.260;2023-07-13T01:05:51;25.20;48.80
59162;DHT22;44942;48.936;8.260;2023-07-13T01:10:54;25.20;48.90
59162;DHT22;44942;48.936;8.260;2023-07-13T01:15:55;25.10;49.00
59162;DHT22;44942;48.936;8.260;2023-07-13T01:20:58;25.10;49.00
59162;DHT22;44942;48.936;8.260;2023-07-13T01:25:59;25.10;49.00
59162;DHT22;44942;48.936;8.260;2023-07-13T01:30:59;25.00;49.10
59162;DHT22;44942;48.936;8.260;2023-07-13T01:36:00;24.90;49.10
59162;DHT22;44942;48.936;8.260;2023-07-13T01:41:02;24.90;49.20
59162;DHT22;44942;48.936;8.260;2023-07-13T01:46:03;24.90;49.20
59162;DHT22;44942;48.936;8.260;2023-07-13T01:51:03;24.80;49.30
59162;DHT22;44942;48.936;8.260;2023-07-13T01:56:04;24.80;49.40
59162;DHT22;44942;48.936;8.260;2023-07-13T02:01:04;24.70;49.40
59162;DHT22;44942;48.936;8.260;2023-07-13T02:06:05;24.70;49.50
59162;DHT22;44942;48.936;8.260;2023-07-13T02:11:06;24.60;49.70
59162;DHT22;44942;48.936;8.260;2023-07-13T02:16:07;24.50;49.80
59162;DHT22;44942;48.936;8.260;2023-07-13T02:21:07;24.50;49.90
59162;DHT22;44942;48.936;8.260;2023-07-13T02:26:08;24.40;50.00
59162;DHT22;44942;48.936;8.260;2023-07-13T02:31:09;24.40;50.10
59162;DHT22;44942;48.936;8.260;2023-07-13T02:36:10;24.40;50.10
59162;DHT22;44942;48.936;8.260;2023-07-13T02:41:11;24.30;50.10
59162;DHT22;44942;48.936;8.260;2023-07-13T02:46:12;24.30;50.20
59162;DHT22;44942;48.936;8.260;2023-07-13T02:51:13;24.30;50.40
59162;DHT22;44942;48.936;8.260;2023-07-13T02:56:13;24.20;50.50
59162;DHT22;44942;48.936;8.260;2023-07-13T03:01:14;24.10;50.50
59162;DHT22;44942;48.936;8.260;2023-07-13T03:06:18;24.10;50.60
59162;DHT22;44942;48.936;8.260;2023-07-13T03:11:19;24.00;50.70
59162;DHT22;44942;48.936;8.260;2023-07-13T03:16:20;23.90;50.90
59162;DHT22;44942;48.936;8.260;2023-07-13T03:21:21;23.90;51.10
59162;DHT22;44942;48.936;8.260;2023-07-13T03:26:21;23.90;51.20
59162;DHT22;44942;48.936;8.260;2023-07-13T03:31:24;23.80;51.30
59162;DHT22;44942;48.936;8.260;2023-07-13T03:36:26;23.70;51.50
59162;DHT22;44942;48.936;8.260;2023-07-13T03:41:27;23.70;51.50
59162;DHT22;44942;48.936;8.260;2023-07-13T03:46:28;23.60;51.70
59162;DHT22;44942;48.936;8.260;2023-07-13T03:51:28;23.60;51.70
59162;DHT22;44942;48.936;8.260;2023-07-13T03:56:29;23.50;51.80
59162;DHT22;44942;48.936;8.260;2023-07-13T04:01:30;23.50;51.80
59162;DHT22;44942;48.936;8.260;2023-07-13T04:06:31;23.50;51.90
59162;DHT22;44942;48.936;8.260;2023-07-13T04:11:32;23.40;51.90
59162;DHT22;44942;48.936;8.260;2023-07-13T04:16:33;23.40;52.00
59162;DHT22;44942;48.936;8.260;2023-07-13T04:21:33;23.40;52.00
59162;DHT22;44942;48.936;8.260;2023-07-13T04:26:34;23.30;52.00
59162;DHT22;44942;48.936;8.260;2023-07-13T04:31:36;23.30;52.10
59162;DHT22;44942;48.936;8.260;2023-07-13T04:36:36;23.30;52.20
59162;DHT22;44942;48.936;8.260;2023-07-13T04:41:37;23.30;52.30
59162;DHT22;44942;48.936;8.260;2023-07-13T04:46:38;23.30;52.20
59162;DHT22;44942;48.936;8.260;2023-07-13T04:51:38;23.30;53.00
59162;DHT22;44942;48.936;8.260;2023-07-13T04:56:39;23.20;52.30
59162;DHT22;44942;48.936;8.260;2023-07-13T05:01:39;23.20;52.40
59162;DHT22;44942;48.936;8.260;2023-07-13T05:06:40;23.20;52.40
59162;DHT22;44942;48.936;8.260;2023-07-13T05:11:41;23.20;52.50
59162;DHT22;44942;48.936;8.260;2023-07-13T05:16:42;23.20;52.60
59162;DHT22;44942;48.936;8.260;2023-07-13T05:21:42;23.20;52.60
59162;DHT22;44942;48.936;8.260;2023-07-13T05:26:43;23.20;52.50
59162;DHT22;44942;48.936;8.260;2023-07-13T05:31:43;23.30;52.60
59162;DHT22;44942;48.936;8.260;2023-07-13T05:36:44;23.30;52.60
59162;DHT22;44942;48.936;8.260;2023-07-13T05:41:44;23.30;52.60
59162;DHT22;44942;48.936;8.260;2023-07-13T05:46:45;23.30;52.70
59162;DHT22;44942;48.936;8.260;2023-07-13T05:51:45;23.30;52.80
59162;DHT22;44942;48.936;8.260;2023-07-13T05:56:46;23.30;52.80
59162;DHT22;44942;48.936;8.260;2023-07-13T06:01:46;23.30;52.90
59162;DHT22;44942;48.936;8.260;2023-07-13T06:06:47;23.40;52.90
59162;DHT22;44942;48.936;8.260;2023-07-13T06:11:47;23.40;52.90
59162;DHT22;44942;48.936;8.260;2023-07-13T06:16:48;23.40;52.90
59162;DHT22;44942;48.936;8.260;2023-07-13T06:21:48;23.40;52.80
59162;DHT22;44942;48.936;8.260;2023-07-13T06:26:49;23.40;52.80
59162;DHT22;44942;48.936;8.260;2023-07-13T06:31:49;23.40;52.90
59162;DHT22;44942;48.936;8.260;2023-07-13T06:36:50;23.50;52.90
59162;DHT22;44942;48.936;8.260;2023-07-13T06:41:50;23.60;52.90
59162;DHT22;44942;48.936;8.260;2023-07-13T06:46:51;23.60;52.90
59162;DHT22;44942;48.936;8.260;2023-07-13T06:51:51;23.70;52.80
59162;DHT22;44942;48.936;8.260;2023-07-13T06:56:52;23.80;52.90
59162;DHT22;44942;48.936;8.260;2023-07-13T07:01:52;23.90;52.90
59162;DHT22;44942;48.936;8.260;2023-07-13T07:06:53;23.90;52.80
59162;DHT22;44942;48.936;8.260;2023-07-13T07:11:53;23.90;52.80
59162;DHT22;44942;48.936;8.260;2023-07-13T07:16:54;24.00;52.80
59162;DHT22;44942;48.936;8.260;2023-07-13T07:21:54;24.10;52.80
59162;DHT22;44942;48.936;8.260;2023-07-13T07:26:55;24.10;52.80
59162;DHT22;44942;48.936;8.260;2023-07-13T07:31:55;24.20;52.70
59162;DHT22;44942;48.936;8.260;2023-07-13T07:36:58;24.20;52.60
59162;DHT22;44942;48.936;8.260;2023-07-13T07:41:59;24.20;52.50
59162;DHT22;44942;48.936;8.260;2023-07-13T07:47:00;24.30;52.60
59162;DHT22;44942;48.936;8.260;2023-07-13T07:52:00;24.30;52.60
59162;DHT22;44942;48.936;8.260;2023-07-13T07:57:01;24.40;52.40
59162;DHT22;44942;48.936;8.260;2023-07-13T08:02:01;24.40;52.30
59162;DHT22;44942;48.936;8.260;2023-07-13T08:07:02;24.50;52.20
59162;DHT22;44942;48.936;8.260;2023-07-13T08:12:03;24.50;52.20
59162;DHT22;44942;48.936;8.260;2023-07-13T08:17:04;24.60;52.30
59162;DHT22;44942;48.936;8.260;2023-07-13T08:22:05;24.60;52.30
59162;DHT22;44942;48.936;8.260;2023-07-13T08:27:06;24.60;52.30
59162;DHT22;44942;48.936;8.260;2023-07-13T08:32:06;24.70;52.40
59162;DHT22;44942;48.936;8.260;2023-07-13T08:37:09;24.70;52.30
59162;DHT22;44942;48.936;8.260;2023-07-13T08:42:27;24.80;52.40
59162;DHT22;44942;48.936;8.260;2023-07-13T08:47:32;24.80;52.20
59162;DHT22;44942;48.936;8.260;2023-07-13T08:52:39;24.90;52.10
59162;DHT22;44942;48.936;8.260;2023-07-13T08:57:40;24.90;52.00
59162;DHT22;44942;48.936;8.260;2023-07-13T09:02:45;24.90;51.90
59162;DHT22;44942;48.936;8.260;2023-07-13T09:12:52;25.00;51.70
59162;DHT22;44942;48.936;8.260;2023-07-13T09:17:57;25.10;51.60
59162;DHT22;44942;48.936;8.260;2023-07-13T09:23:04;25.10;51.60
59162;DHT22;44942;48.936;8.260;2023-07-13T09:28:12;25.10;51.40
59162;DHT22;44942;48.936;8.260;2023-07-13T09:33:15;25.20;51.40
59162;DHT22;44942;48.936;8.260;2023-07-13T09:38:17;25.20;51.30
59162;DHT22;44942;48.936;8.260;2023-07-13T09:43:17;25.20;51.10
59162;DHT22;44942;48.936;8.260;2023-07-13T09:48:18;25.20;51.10
59162;DHT22;44942;48.936;8.260;2023-07-13T09:53:19;25.20;50.80
59162;DHT22;44942;48.936;8.260;2023-07-13T09:58:21;25.30;50.70
59162;DHT22;44942;48.936;8.260;2023-07-13T10:03:25;25.30;50.60
59162;DHT22;44942;48.936;8.260;2023-07-13T10:08:27;25.30;50.50
59162;DHT22;44942;48.936;8.260;2023-07-13T10:13:33;25.40;50.40
59162;DHT22;44942;48.936;8.260;2023-07-13T10:18:39;25.40;50.40
59162;DHT22;44942;48.936;8.260;2023-07-13T10:23:42;25.40;50.40
59162;DHT22;44942;48.936;8.260;2023-07-13T10:28:43;25.40;50.30
59162;DHT22;44942;48.936;8.260;2023-07-13T10:33:45;25.50;50.30
59162;DHT22;44942;48.936;8.260;2023-07-13T10:38:46;25.50;50.30
59162;DHT22;44942;48.936;8.260;2023-07-13T10:43:47;25.50;50.10
59162;DHT22;44942;48.936;8.260;2023-07-13T10:48:51;25.60;50.10
59162;DHT22;44942;48.936;8.260;2023-07-13T10:54:10;25.60;50.00
59162;DHT22;44942;48.936;8.260;2023-07-13T10:59:12;25.60;50.00
59162;DHT22;44942;48.936;8.260;2023-07-13T11:04:15;25.60;49.80
59162;DHT22;44942;48.936;8.260;2023-07-13T11:09:36;25.60;49.70
59162;DHT22;44942;48.936;8.260;2023-07-13T11:14:39;25.60;49.60
59162;DHT22;44942;48.936;8.260;2023-07-13T11:19:42;25.70;49.60
59162;DHT22;44942;48.936;8.260;2023-07-13T11:24:59;25.70;49.40
59162;DHT22;44942;48.936;8.260;2023-07-13T11:30:06;25.70;49.20
59162;DHT22;44942;48.936;8.260;2023-07-13T11:35:12;25.80;49.10
59162;DHT22;44942;48.936;8.260;2023-07-13T11:40:14;25.80;49.10
59162;DHT22;44942;48.936;8.260;2023-07-13T11:45:18;25.80;48.90
59162;DHT22;44942;48.936;8.260;2023-07-13T11:50:20;25.80;48.80
59162;DHT22;44942;48.936;8.260;2023-07-13T11:55:21;25.80;48.80
59162;DHT22;44942;48.936;8.260;2023-07-13T12:00:31;25.80;48.70
59162;DHT22;44942;48.936;8.260;2023-07-13T12:05:33;25.90;48.70
59162;DHT22;44942;48.936;8.260;2023-07-13T12:10:34;25.90;48.60
59162;DHT22;44942;48.936;8.260;2023-07-13T12:20:37;26.00;48.50
59162;DHT22;44942;48.936;8.260;2023-07-13T12:25:38;25.90;48.40
59162;DHT22;44942;48.936;8.260;2023-07-13T12:30:38;26.00;48.20
59162;DHT22;44942;48.936;8.260;2023-07-13T12:35:40;26.00;48.10
59162;DHT22;44942;48.936;8.260;2023-07-13T12:40:42;26.00;47.90
59162;DHT22;44942;48.936;8.260;2023-07-13T12:46:01;26.10;47.80
59162;DHT22;44942;48.936;8.260;2023-07-13T12:51:02;26.00;47.50
59162;DHT22;44942;48.936;8.260;2023-07-13T12:56:03;26.10;47.40
59162;DHT22;44942;48.936;8.260;2023-07-13T13:01:03;26.10;47.30
59162;DHT22;44942;48.936;8.260;2023-07-13T13:06:17;26.10;47.10
59162;DHT22;44942;48.936;8.260;2023-07-13T13:11:19;26.10;46.80
59162;DHT22;44942;48.936;8.260;2023-07-13T13:16:26;26.10;46.60
59162;DHT22;44942;48.936;8.260;2023-07-13T13:21:30;26.20;46.60
59162;DHT22;44942;48.936;8.260;2023-07-13T13:26:32;26.20;46.50
59162;DHT22;44942;48.936;8.260;2023-07-13T13:31:33;26.20;46.40
59162;DHT22;44942;48.936;8.260;2023-07-13T13:36:34;26.20;46.30
59162;DHT22;44942;48.936;8.260;2023-07-13T13:41:35;26.20;46.30
59162;DHT22;44942;48.936;8.260;2023-07-13T13:46:35;26.30;46.20
59162;DHT22;44942;48.936;8.260;2023-07-13T13:51:36;26.30;46.10
59162;DHT22;44942;48.936;8.260;2023-07-13T13:56:37;26.30;46.10
59162;DHT22;44942;48.936;8.260;2023-07-13T14:01:38;26.30;45.90
59162;DHT22;44942;48.936;8.260;2023-07-13T14:06:39;26.30;45.60
59162;DHT22;44942;48.936;8.260;2023-07-13T14:11:40;26.30;45.60
59162;DHT22;44942;48.936;8.260;2023-07-13T14:16:44;26.30;45.40
59162;DHT22;44942;48.936;8.260;2023-07-13T14:21:46;26.40;45.30
59162;DHT22;44942;48.936;8.260;2023-07-13T14:26:49;26.40;45.20
59162;DHT22;44942;48.936;8.260;2023-07-13T14:31:49;26.40;45.20
59162;DHT22;44942;48.936;8.260;2023-07-13T14:36:50;26.50;45.30
59162;DHT22;44942;48.936;8.260;2023-07-13T14:41:52;26.50;45.30
59162;DHT22;44942;48.936;8.260;2023-07-13T14:46:53;26.50;45.10
59162;DHT22;44942;48.936;8.260;2023-07-13T14:51:54;26.50;45.00
59162;DHT22;44942;48.936;8.260;2023-07-13T14:56:55;26.50;44.70
59162;DHT22;44942;48.936;8.260;2023-07-13T15:01:55;26.60;44.70
59162;DHT22;44942;48.936;8.260;2023-07-13T15:06:57;26.60;44.70
59162;DHT22;44942;48.936;8.260;2023-07-13T15:11:59;26.60;44.70
59162;DHT22;44942;48.936;8.260;2023-07-13T15:16:59;26.60;44.60
59162;DHT22;44942;48.936;8.260;2023-07-13T15:22:00;26.60;44.70
59162;DHT22;44942;48.936;8.260;2023-07-13T15:27:00;26.60;44.80
59162;DHT22;44942;48.936;8.260;2023-07-13T15:32:02;26.70;44.90
59162;DHT22;44942;48.936;8.260;2023-07-13T15:37:03;26.70;44.70
59162;DHT22;44942;48.936;8.260;2023-07-13T15:42:05;26.70;44.70
59162;DHT22;44942;48.936;8.260;2023-07-13T15:47:08;26.70;44.70
59162;DHT22;44942;48.936;8.260;2023-07-13T15:52:16;26.70;44.70
59162;DHT22;44942;48.936;8.260;2023-07-13T15:57:18;26.80;44.70
59162;DHT22;44942;48.936;8.260;2023-07-13T16:02:19;26.80;44.70
59162;DHT22;44942;48.936;8.260;2023-07-13T16:07:20;26.80;44.70
59162;DHT22;44942;48.936;8.260;2023-07-13T16:12:22;26.80;44.60
59162;DHT22;44942;48.936;8.260;2023-07-13T16:17:23;26.80;44.50
59162;DHT22;44942;48.936;8.260;2023-07-13T16:22:23;26.80;44.50
59162;DHT22;44942;48.936;8.260;2023-07-13T16:27:26;26.90;44.50
59162;DHT22;44942;48.936;8.260;2023-07-13T16:32:26;26.90;44.50
59162;DHT22;44942;48.936;8.260;2023-07-13T16:37:29;26.90;44.50
59162;DHT22;44942;48.936;8.260;2023-07-13T16:42:29;27.00;44.70
59162;DHT22;44942;48.936;8.260;2023-07-13T16:47:30;27.00;44.60
59162;DHT22;44942;48.936;8.260;2023-07-13T16:52:30;27.00;44.60
59162;DHT22;44942;48.936;8.260;2023-07-13T16:57:33;27.00;44.60
59162;DHT22;44942;48.936;8.260;2023-07-13T17:02:34;27.00;44.60
59162;DHT22;44942;48.936;8.260;2023-07-13T17:07:35;27.10;44.60
59162;DHT22;44942;48.936;8.260;2023-07-13T17:12:36;27.10;44.60
59162;DHT22;44942;48.936;8.260;2023-07-13T17:17:36;27.10;44.50
59162;DHT22;44942;48.936;8.260;2023-07-13T17:22:42;27.10;44.50
59162;DHT22;44942;48.936;8.260;2023-07-13T17:27:45;27.10;44.50
59162;DHT22;44942;48.936;8.260;2023-07-13T17:32:47;27.10;44.40
59162;DHT22;44942;48.936;8.260;2023-07-13T17:37:49;27.20;45.20
59162;DHT22;44942;48.936;8.260;2023-07-13T17:42:50;27.20;44.40
59162;DHT22;44942;48.936;8.260;2023-07-13T17:47:57;27.20;44.40
59162;DHT22;44942;48.936;8.260;2023-07-13T17:52:59;27.20;44.50
59162;DHT22;44942;48.936;8.260;2023-07-13T17:58:02;27.20;44.50
59162;DHT22;44942;48.936;8.260;2023-07-13T18:03:05;27.20;44.30
59162;DHT22;44942;48.936;8.260;2023-07-13T18:13:23;27.20;44.40
59162;DHT22;44942;48.936;8.260;2023-07-13T18:18:24;27.20;44.30
59162;DHT22;44942;48.936;8.260;2023-07-13T18:23:25;27.20;44.10
59162;DHT22;44942;48.936;8.260;2023-07-13T18:28:25;27.20;44.00
59162;DHT22;44942;48.936;8.260;2023-07-13T18:33:27;27.20;43.80
59162;DHT22;44942;48.936;8.260;2023-07-13T18:38:29;27.20;43.80
59162;DHT22;44942;48.936;8.260;2023-07-13T18:43:32;27.20;43.70
59162;DHT22;44942;48.936;8.260;2023-07-13T18:48:33;27.20;43.70
59162;DHT22;44942;48.936;8.260;2023-07-13T18:53:33;27.20;43.70
59162;DHT22;44942;48.936;8.260;2023-07-13T18:58:34;27.20;43.80
59162;DHT22;44942;48.936;8.260;2023-07-13T19:03:34;27.20;43.70
59162;DHT22;44942;48.936;8.260;2023-07-13T19:08:37;27.20;43.50
59162;DHT22;44942;48.936;8.260;2023-07-13T19:13:39;27.20;43.30
59162;DHT22;44942;48.936;8.260;2023-07-13T19:18:39;27.20;43.20
59162;DHT22;44942;48.936;8.260;2023-07-13T19:23:41;27.20;43.10
59162;DHT22;44942;48.936;8.260;2023-07-13T19:28:43;27.20;43.00
59162;DHT22;44942;48.936;8.260;2023-07-13T19:33:43;27.10;42.90
59162;DHT22;44942;48.936;8.260;2023-07-13T19:38:44;27.10;43.00
59162;DHT22;44942;48.936;8.260;2023-07-13T19:43:45;27.10;43.50
59162;DHT22;44942;48.936;8.260;2023-07-13T19:48:46;27.10;43.70
59162;DHT22;44942;48.936;8.260;2023-07-13T19:53:48;27.10;43.90
59162;DHT22;44942;48.936;8.260;2023-07-13T19:58:49;27.00;44.10
59162;DHT22;44942;48.936;8.260;2023-07-13T20:03:50;27.00;44.20
59162;DHT22;44942;48.936;8.260;2023-07-13T20:08:50;27.00;44.30
59162;DHT22;44942;48.936;8.260;2023-07-13T20:13:51;26.90;44.50
59162;DHT22;44942;48.936;8.260;2023-07-13T20:18:51;26.90;44.60
59162;DHT22;44942;48.936;8.260;2023-07-13T20:23:52;26.80;44.50
59162;DHT22;44942;48.936;8.260;2023-07-13T20:28:52;26.80;44.70
59162;DHT22;44942;48.936;8.260;2023-07-13T20:33:56;26.70;44.80
59162;DHT22;44942;48.936;8.260;2023-07-13T20:38:57;26.70;45.00
59162;DHT22;44942;48.936;8.260;2023-07-13T20:43:58;26.60;45.20
59162;DHT22;44942;48.936;8.260;2023-07-13T20:48:59;26.60;45.50
59162;DHT22;44942;48.936;8.260;2023-07-13T20:53:59;26.50;45.60
59162;DHT22;44942;48.936;8.260;2023-07-13T20:59:00;26.50;45.70
59162;DHT22;44942;48.936;8.260;2023-07-13T21:04:02;26.50;45.80
59162;DHT22;44942;48.936;8.260;2023-07-13T21:09:16;26.40;45.90
59162;DHT22;44942;48.936;8.260;2023-07-13T21:14:17;26.30;45.80
59162;DHT22;44942;48.936;8.260;2023-07-13T21:19:19;26.20;46.00
59162;DHT22;44942;48.936;8.260;2023-07-13T21:24:20;26.20;46.10
59162;DHT22;44942;48.936;8.260;2023-07-13T21:29:20;26.10;46.20
59162;DHT22;44942;48.936;8.260;2023-07-13T21:34:21;26.10;46.30
59162;DHT22;44942;48.936;8.260;2023-07-13T21:39:21;26.00;46.30
59162;DHT22;44942;48.936;8.260;2023-07-13T21:44:29;25.90;46.40
59162;DHT22;44942;48.936;8.260;2023-07-13T21:49:29;25.80;46.40
59162;DHT22;44942;48.936;8.260;2023-07-13T21:54:30;25.80;46.50
59162;DHT22;44942;48.936;8.260;2023-07-13T21:59:31;25.70;46.50
59162;DHT22;44942;48.936;8.260;2023-07-13T22:04:32;25.70;46.70
59162;DHT22;44942;48.936;8.260;2023-07-13T22:09:33;25.60;46.70
59162;DHT22;44942;48.936;8.260;2023-07-13T22:14:33;25.60;46.90
59162;DHT22;44942;48.936;8.260;2023-07-13T22:19:34;25.50;46.90
59162;DHT22;44942;48.936;8.260;2023-07-13T22:24:34;25.40;46.80
59162;DHT22;44942;48.936;8.260;2023-07-13T22:29:35;25.40;46.90
59162;DHT22;44942;48.936;8.260;2023-07-13T22:34:35;25.30;46.90
59162;DHT22;44942;48.936;8.260;2023-07-13T22:39:36;25.30;47.10
59162;DHT22;44942;48.936;8.260;2023-07-13T22:44:37;25.20;48.00
59162;DHT22;44942;48.936;8.260;2023-07-13T22:49:37;25.10;47.30
59162;DHT22;44942;48.936;8.260;2023-07-13T22:54:38;25.10;47.50
59162;DHT22;44942;48.936;8.260;2023-07-13T22:59:40;25.10;47.80
59162;DHT22;44942;48.936;8.260;2023-07-13T23:04:40;25.00;47.80
59162;DHT22;44942;48.936;8.260;2023-07-13T23:09:41;24.90;48.00
59162;DHT22;44942;48.936;8.260;2023-07-13T23:14:42;24.90;48.10
59162;DHT22;44942;48.936;8.260;2023-07-13T23:19:43;24.80;48.30
59162;DHT22;44942;48.936;8.260;2023-07-13T23:24:43;24.80;48.40
59162;DHT22;44942;48.936;8.260;2023-07-13T23:29:44;24.70;48.40
59162;DHT22;44942;48.936;8.260;2023-07-13T23:34:45;24.70;48.40
59162;DHT22;44942;48.936;8.260;2023-07-13T23:39:46;24.60;48.40
59162;DHT22;44942;48.936;8.260;2023-07-13T23:44:46;24.60;48.40
59162;DHT22;44942;48.936;8.260;2023-07-13T23:49:47;24.50;48.20
59162;DHT22;44942;48.936;8.260;2023-07-13T23:54:47;24.50;48.20
59162;DHT22;44942;48.936;8.260;2023-07-13T23:59:48;24.50;48.20
